createdAt,value
2022-12-16T00:01:58.669Z,-18.88
2022-12-16T00:04:26.715Z,-18.80
2022-12-16T00:06:54.709Z,-18.83
2022-12-16T00:09:22.683Z,-18.90
2022-12-16T00:11:50.475Z,-19.12
2022-12-16T00:14:19.601Z,-18.97
2022-12-16T00:16:47.759Z,-18.95
2022-12-16T00:19:17.088Z,-18.94
2022-12-16T00:21:44.990Z,-18.96
2022-12-16T00:24:12.838Z,-18.95
2022-12-16T00:26:40.661Z,-18.96
2022-12-16T00:29:11.096Z,-18.92
2022-12-16T00:31:39.085Z,-18.88
2022-12-16T00:34:06.986Z,-18.99
2022-12-16T00:36:39.702Z,-18.99
2022-12-16T00:39:07.680Z,-18.97
2022-12-16T00:41:36.084Z,-19.05
2022-12-16T00:44:04.504Z,-19.07
2022-12-16T00:46:32.668Z,-18.97
2022-12-16T00:49:00.505Z,-18.97
2022-12-16T00:51:28.400Z,-18.95
2022-12-16T00:53:57.829Z,-19.03
2022-12-16T00:56:26.205Z,-19.13
2022-12-16T00:58:54.125Z,-19.23
2022-12-16T01:01:22.815Z,-19.21
2022-12-16T01:03:50.795Z,-19.15
2022-12-16T01:06:19.069Z,-19.11
2022-12-16T01:08:48.789Z,-19.17
2022-12-16T01:11:19.362Z,-19.26
2022-12-16T01:13:48.022Z,-19.41
2022-12-16T01:16:15.991Z,-19.55
2022-12-16T01:18:46.888Z,-19.55
2022-12-16T01:21:16.700Z,-19.56
2022-12-16T01:23:44.586Z,-19.53
2022-12-16T01:26:18.238Z,-19.60
2022-12-16T01:28:49.352Z,-19.62
2022-12-16T01:31:18.470Z,-19.54
2022-12-16T01:33:46.835Z,-19.41
2022-12-16T01:36:14.656Z,-19.28
2022-12-16T01:38:43.853Z,-19.18
2022-12-16T01:41:12.573Z,-19.10
2022-12-16T01:43:42.161Z,-19.17
2022-12-16T01:46:24.841Z,-19.16
2022-12-16T01:48:59.738Z,-19.10
2022-12-16T01:51:34.680Z,-19.08
2022-12-16T01:54:07.607Z,-19.11
2022-12-16T01:56:38.567Z,-19.12
2022-12-16T01:59:06.832Z,-19.14
2022-12-16T02:01:36.090Z,-19.24
2022-12-16T02:04:05.367Z,-19.19
2022-12-16T02:06:33.873Z,-19.23
2022-12-16T02:09:06.496Z,-19.42
2022-12-16T02:11:53.518Z,-19.46
2022-12-16T02:14:50.500Z,-19.48
2022-12-16T02:17:26.721Z,-19.43
2022-12-16T02:20:23.647Z,-19.41
2022-12-16T02:23:12.130Z,-19.40
2022-12-16T02:26:00.413Z,-19.33
2022-12-16T02:28:45.992Z,-19.27
2022-12-16T02:31:26.824Z,-19.23
2022-12-16T02:34:07.940Z,-19.28
2022-12-16T02:36:52.049Z,-19.29
2022-12-16T02:39:26.893Z,-19.34
2022-12-16T02:42:03.580Z,-19.29
2022-12-16T02:44:39.861Z,-19.32
2022-12-16T02:47:09.049Z,-19.37
2022-12-16T02:49:58.277Z,-19.38
2022-12-16T02:52:28.316Z,-19.44
2022-12-16T02:54:59.487Z,-19.46
2022-12-16T02:57:51.229Z,-19.40
2022-12-16T03:00:22.391Z,-19.37
2022-12-16T03:03:00.922Z,-19.38
2022-12-16T03:05:34.131Z,-19.40
2022-12-16T03:08:07.071Z,-19.42
2022-12-16T03:10:41.252Z,-19.39
2022-12-16T03:13:11.962Z,-19.47
2022-12-16T03:15:42.091Z,-19.40
2022-12-16T03:18:14.962Z,-19.45
2022-12-16T03:20:47.631Z,-19.40
2022-12-16T03:23:22.109Z,-19.35
2022-12-16T03:25:55.491Z,-19.39
2022-12-16T03:28:33.473Z,-19.41
2022-12-16T03:31:08.621Z,-19.39
2022-12-16T03:33:44.023Z,-19.39
2022-12-16T03:36:17.594Z,-19.42
2022-12-16T03:38:46.710Z,-19.39
2022-12-16T03:41:17.618Z,-19.44
2022-12-16T03:43:45.931Z,-19.40
2022-12-16T03:46:15.262Z,-19.39
2022-12-16T03:48:48.895Z,-19.37
2022-12-16T03:51:17.009Z,-19.46
2022-12-16T03:53:45.209Z,-19.46
2022-12-16T03:56:13.816Z,-19.44
2022-12-16T03:58:41.855Z,-19.50
2022-12-16T04:01:11.167Z,-19.50
2022-12-16T04:03:40.320Z,-19.55
2022-12-16T04:06:10.016Z,-19.57
2022-12-16T04:08:39.071Z,-19.64
2022-12-16T04:11:24.809Z,-19.69
2022-12-16T04:14:10.169Z,-19.62
2022-12-16T04:17:06.829Z,-19.61
2022-12-16T04:19:55.226Z,-19.75
2022-12-16T04:22:45.413Z,-19.83
2022-12-16T04:25:17.176Z,-19.89
2022-12-16T04:27:46.976Z,-19.98
2022-12-16T04:30:24.914Z,-19.98
2022-12-16T04:33:14.025Z,-19.89
2022-12-16T04:35:59.785Z,-20.04
2022-12-16T04:38:47.407Z,-20.17
2022-12-16T04:41:33.349Z,-20.13
2022-12-16T04:44:18.916Z,-19.98
2022-12-16T04:47:04.482Z,-19.77
2022-12-16T04:49:49.741Z,-19.59
2022-12-16T04:52:36.364Z,-19.52
2022-12-16T04:55:24.507Z,-19.46
2022-12-16T04:58:10.808Z,-19.40
2022-12-16T05:00:56.683Z,-19.43
2022-12-16T05:03:42.119Z,-19.42
2022-12-16T05:06:28.415Z,-19.44
2022-12-16T05:09:13.900Z,-19.54
2022-12-16T05:12:01.022Z,-19.60
2022-12-16T05:14:46.405Z,-19.58
2022-12-16T05:17:31.898Z,-19.70
2022-12-16T05:20:17.754Z,-19.70
2022-12-16T05:23:03.248Z,-19.92
2022-12-16T05:25:49.036Z,-19.89
2022-12-16T05:28:36.122Z,-19.79
2022-12-16T05:31:21.506Z,-19.72
2022-12-16T05:34:06.719Z,-19.73
2022-12-16T05:36:52.123Z,-19.77
2022-12-16T05:39:37.554Z,-19.76
2022-12-16T05:42:22.856Z,-19.68
2022-12-16T05:45:09.449Z,-19.63
2022-12-16T05:47:54.817Z,-19.64
2022-12-16T05:50:40.241Z,-19.69
2022-12-16T05:53:27.838Z,-19.91
2022-12-16T05:56:13.350Z,-19.84
2022-12-16T05:58:58.778Z,-19.72
2022-12-16T06:01:47.726Z,-19.73
2022-12-16T06:04:33.011Z,-19.69
2022-12-16T06:07:18.530Z,-19.71
2022-12-16T06:10:03.622Z,-19.74
2022-12-16T06:12:48.966Z,-19.72
2022-12-16T06:15:34.561Z,-19.72
2022-12-16T06:18:21.091Z,-19.69
2022-12-16T06:21:06.616Z,-19.65
2022-12-16T06:23:52.003Z,-19.65
2022-12-16T06:26:37.967Z,-19.67
2022-12-16T06:29:22.603Z,-19.67
2022-12-16T06:32:08.028Z,-19.68
2022-12-16T06:34:54.871Z,-19.86
2022-12-16T06:37:40.192Z,-19.90
2022-12-16T06:40:28.081Z,-19.87
2022-12-16T06:43:13.226Z,-19.79
2022-12-16T06:45:58.982Z,-19.70
2022-12-16T06:48:44.213Z,-19.63
2022-12-16T06:51:30.924Z,-19.54
2022-12-16T06:54:16.187Z,-19.56
2022-12-16T06:57:01.592Z,-19.52
2022-12-16T06:59:46.866Z,-19.43
2022-12-16T07:02:32.551Z,-19.45
2022-12-16T07:05:18.022Z,-19.43
2022-12-16T07:08:07.611Z,-19.34
2022-12-16T07:10:55.068Z,-19.32
2022-12-16T07:13:46.364Z,-19.27
2022-12-16T07:16:32.018Z,-19.23
2022-12-16T07:19:17.696Z,-19.27
2022-12-16T07:22:03.196Z,-19.32
2022-12-16T07:24:49.704Z,-19.32
2022-12-16T07:27:35.107Z,-19.38
2022-12-16T07:30:20.620Z,-19.33
2022-12-16T07:33:08.721Z,-19.38
2022-12-16T07:35:54.354Z,-19.34
2022-12-16T07:38:39.618Z,-19.39
2022-12-16T07:41:26.185Z,-19.37
2022-12-16T07:44:11.467Z,-19.29
2022-12-16T07:46:56.806Z,-19.23
2022-12-16T07:49:41.366Z,-19.24
2022-12-16T07:52:26.877Z,-19.11
2022-12-16T07:55:11.422Z,-19.11
2022-12-16T07:57:58.208Z,-19.12
2022-12-16T08:00:48.775Z,-19.14
2022-12-16T08:03:34.559Z,-19.23
2022-12-16T08:06:19.708Z,-19.35
2022-12-16T08:09:05.156Z,-19.47
2022-12-16T08:11:50.449Z,-19.37
2022-12-16T08:14:37.222Z,-19.24
2022-12-16T08:17:22.550Z,-19.17
2022-12-16T08:20:07.860Z,-19.18
2022-12-16T08:22:53.143Z,-19.19
2022-12-16T08:25:40.458Z,-19.22
2022-12-16T08:28:25.768Z,-19.20
2022-12-16T08:31:12.595Z,-19.23
2022-12-16T08:33:57.718Z,-19.15
2022-12-16T08:36:43.027Z,-18.98
2022-12-16T08:39:28.370Z,-18.85
2022-12-16T08:42:13.845Z,-18.78
2022-12-16T08:44:58.920Z,-18.75
2022-12-16T08:47:45.618Z,-18.82
2022-12-16T08:50:31.243Z,-18.77
2022-12-16T08:53:16.766Z,-18.73
2022-12-16T08:56:02.315Z,-18.70
2022-12-16T08:58:47.350Z,-18.66
2022-12-16T09:01:32.841Z,-18.61
2022-12-16T09:04:19.553Z,-18.60
2022-12-16T09:07:05.960Z,-18.55
2022-12-16T09:09:51.372Z,-18.62
2022-12-16T09:12:36.750Z,-18.52
2022-12-16T09:15:22.822Z,-18.45
2022-12-16T09:18:12.560Z,-18.45
2022-12-16T09:20:59.654Z,-18.42
2022-12-16T09:23:44.919Z,-18.42
2022-12-16T09:26:30.333Z,-18.40
2022-12-16T09:29:12.234Z,-18.37
2022-12-16T09:31:57.690Z,-18.39
2022-12-16T09:34:42.964Z,-18.32
2022-12-16T09:37:29.627Z,-18.19
2022-12-16T09:40:15.208Z,-18.10
2022-12-16T09:43:10.333Z,-18.30
2022-12-16T09:46:05.735Z,-18.26
2022-12-16T09:48:58.926Z,-18.05
2022-12-16T09:51:45.953Z,-17.94
2022-12-16T09:54:37.908Z,-17.79
2022-12-16T09:57:24.917Z,-17.70
2022-12-16T10:00:13.782Z,-17.59
2022-12-16T10:03:06.378Z,-17.50
2022-12-16T10:06:02.421Z,-17.43
2022-12-16T10:08:56.442Z,-17.37
2022-12-16T10:11:56.253Z,-17.24
2022-12-16T10:14:58.065Z,-17.13
2022-12-16T10:17:44.511Z,-17.08
2022-12-16T10:20:43.389Z,-17.02
2022-12-16T10:23:36.802Z,-16.99
2022-12-16T10:26:30.275Z,-16.96
2022-12-16T10:29:25.013Z,-16.94
2022-12-16T10:32:10.051Z,-16.94
2022-12-16T10:34:57.555Z,-16.87
2022-12-16T10:37:50.999Z,-16.91
2022-12-16T10:40:43.530Z,-16.85
2022-12-16T10:43:35.029Z,-16.79
2022-12-16T10:46:28.199Z,-16.83
2022-12-16T10:49:14.403Z,-16.90
2022-12-16T10:52:03.981Z,-16.97
2022-12-16T10:54:52.224Z,-16.93
2022-12-16T10:57:54.014Z,-16.89
2022-12-16T11:00:57.130Z,-16.81
2022-12-16T11:03:45.784Z,-16.85
2022-12-16T11:06:34.102Z,-16.78
2022-12-16T11:09:33.866Z,-16.68
2022-12-16T11:12:56.718Z,-16.65
2022-12-16T11:15:44.508Z,-16.56
2022-12-16T11:18:32.400Z,-16.54
2022-12-16T11:21:31.368Z,-16.45
2022-12-16T11:24:31.383Z,-16.32
2022-12-16T11:27:18.299Z,-16.28
2022-12-16T11:30:11.932Z,-16.19
2022-12-16T11:32:58.731Z,-16.14
2022-12-16T11:35:46.561Z,-16.10
2022-12-16T11:38:55.366Z,-16.03
2022-12-16T11:41:44.625Z,-15.95
2022-12-16T11:44:41.155Z,-15.90
2022-12-16T11:47:37.212Z,-15.94
2022-12-16T11:50:29.607Z,-15.92
2022-12-16T11:53:17.008Z,-15.86
2022-12-16T11:56:15.490Z,-15.81
2022-12-16T11:59:05.712Z,-15.80
2022-12-16T12:01:56.359Z,-15.75
2022-12-16T12:04:41.940Z,-15.70
2022-12-16T12:07:45.883Z,-15.67
2022-12-16T12:11:07.386Z,-15.62
2022-12-16T12:14:08.310Z,-15.60
2022-12-16T12:17:04.094Z,-15.53
2022-12-16T12:20:01.056Z,-15.54
2022-12-16T12:22:54.051Z,-15.54
2022-12-16T12:25:46.877Z,-15.55
2022-12-16T12:28:45.470Z,-15.67
2022-12-16T12:31:45.070Z,-15.82
2022-12-16T12:34:41.606Z,-15.80
2022-12-16T12:37:33.064Z,-15.76
2022-12-16T12:40:29.401Z,-15.69
2022-12-16T12:43:15.576Z,-15.75
2022-12-16T12:46:13.782Z,-15.74
2022-12-16T12:49:08.366Z,-15.71
2022-12-16T12:52:04.407Z,-15.67
2022-12-16T12:54:54.424Z,-15.67
2022-12-16T12:57:43.411Z,-15.64
2022-12-16T13:00:35.960Z,-15.61
2022-12-16T13:03:26.728Z,-15.62
2022-12-16T13:06:13.705Z,-15.61
2022-12-16T13:09:12.802Z,-15.63
2022-12-16T13:12:18.930Z,-15.63
2022-12-16T13:15:16.476Z,-15.66
2022-12-16T13:18:49.095Z,-15.72
2022-12-16T13:22:05.070Z,-15.70
2022-12-16T13:24:58.973Z,-15.75
2022-12-16T13:27:46.111Z,-15.71
2022-12-16T13:30:44.003Z,-15.67
2022-12-16T13:33:45.121Z,-15.68
2022-12-16T13:36:32.406Z,-15.68
2022-12-16T13:39:37.660Z,-15.66
2022-12-16T13:42:23.371Z,-15.62
2022-12-16T13:45:14.817Z,-15.63
2022-12-16T13:48:59.690Z,-15.60
2022-12-16T13:52:17.774Z,-15.56
2022-12-16T13:55:11.339Z,-15.63
2022-12-16T13:58:01.240Z,-15.67
2022-12-16T14:00:48.093Z,-15.72
2022-12-16T14:03:38.515Z,-15.75
2022-12-16T14:06:29.320Z,-15.81
2022-12-16T14:09:15.373Z,-15.87
2022-12-16T14:12:11.085Z,-15.93
2022-12-16T14:15:01.070Z,-15.94
2022-12-16T14:17:52.914Z,-15.98
2022-12-16T14:20:45.126Z,-16.21
2022-12-16T14:23:59.571Z,-16.39
2022-12-16T14:26:46.085Z,-16.48
2022-12-16T14:29:39.844Z,-16.49
2022-12-16T14:32:38.895Z,-16.54
2022-12-16T14:35:31.745Z,-16.54
2022-12-16T14:38:17.644Z,-16.42
2022-12-16T14:41:10.061Z,-16.39
2022-12-16T14:43:55.513Z,-16.38
2022-12-16T14:46:44.389Z,-16.32
2022-12-16T14:49:38.375Z,-16.33
2022-12-16T14:52:34.736Z,-16.19
2022-12-16T14:55:30.956Z,-16.06
2022-12-16T14:58:30.120Z,-15.99
2022-12-16T15:01:18.990Z,-16.03
2022-12-16T15:04:08.093Z,-16.04
2022-12-16T15:06:58.719Z,-16.09
2022-12-16T15:09:48.214Z,-16.13
2022-12-16T15:12:37.678Z,-16.11
2022-12-16T15:15:27.371Z,-16.02
2022-12-16T15:18:15.371Z,-15.98
2022-12-16T15:21:08.043Z,-16.00
2022-12-16T15:23:58.462Z,-15.94
2022-12-16T15:26:45.589Z,-16.07
2022-12-16T15:29:48.646Z,-16.19
2022-12-16T15:32:52.176Z,-16.26
2022-12-16T15:35:47.257Z,-16.27
2022-12-16T15:38:43.714Z,-16.42
2022-12-16T15:41:39.968Z,-16.37
2022-12-16T15:44:33.417Z,-16.40
2022-12-16T15:47:18.906Z,-16.39
2022-12-16T15:50:06.323Z,-16.39
2022-12-16T15:52:57.500Z,-16.41
2022-12-16T15:55:50.410Z,-16.48
2022-12-16T15:58:43.132Z,-16.50
2022-12-16T16:01:30.491Z,-16.50
2022-12-16T16:04:16.646Z,-16.54
2022-12-16T16:07:06.086Z,-16.53
2022-12-16T16:09:54.800Z,-16.53
2022-12-16T16:12:43.399Z,-16.58
2022-12-16T16:15:31.388Z,-16.62
2022-12-16T16:18:19.521Z,-16.67
2022-12-16T16:21:06.969Z,-16.78
2022-12-16T16:23:52.258Z,-16.81
2022-12-16T16:26:41.122Z,-16.82
2022-12-16T16:29:29.730Z,-16.85
2022-12-16T16:32:15.409Z,-16.76
2022-12-16T16:35:01.075Z,-16.73
2022-12-16T16:37:46.232Z,-16.63
2022-12-16T16:40:37.255Z,-16.65
2022-12-16T16:43:22.642Z,-16.62
2022-12-16T16:46:18.867Z,-16.60
2022-12-16T16:49:04.653Z,-16.67
2022-12-16T16:51:49.965Z,-16.81
2022-12-16T16:54:35.488Z,-16.91
2022-12-16T16:57:20.899Z,-16.96
2022-12-16T17:00:06.232Z,-17.03
2022-12-16T17:02:53.016Z,-17.11
2022-12-16T17:05:38.388Z,-17.11
2022-12-16T17:08:23.820Z,-17.06
2022-12-16T17:11:09.259Z,-16.99
2022-12-16T17:13:54.872Z,-17.07
2022-12-16T17:16:40.254Z,-17.10
2022-12-16T17:19:26.901Z,-17.15
2022-12-16T17:22:13.355Z,-17.15
2022-12-16T17:24:58.701Z,-17.18
2022-12-16T17:27:44.617Z,-17.13
2022-12-16T17:30:34.674Z,-17.27
2022-12-16T17:33:19.247Z,-17.20
2022-12-16T17:36:08.656Z,-17.20
2022-12-16T17:38:57.192Z,-17.49
2022-12-16T17:41:43.154Z,-17.50
2022-12-16T17:44:28.530Z,-17.44
2022-12-16T17:47:13.881Z,-17.45
2022-12-16T17:49:59.325Z,-17.45
2022-12-16T17:52:46.477Z,-17.53
2022-12-16T17:55:32.061Z,-17.49
2022-12-16T17:58:17.451Z,-17.42
2022-12-16T18:01:03.173Z,-17.41
2022-12-16T18:03:48.746Z,-17.38
2022-12-16T18:06:34.390Z,-17.40
2022-12-16T18:09:21.239Z,-17.26
2022-12-16T18:12:06.406Z,-17.22
2022-12-16T18:14:52.111Z,-17.18
2022-12-16T18:17:37.294Z,-17.25
2022-12-16T18:20:23.781Z,-17.24
2022-12-16T18:23:13.056Z,-17.31
2022-12-16T18:26:01.058Z,-17.35
2022-12-16T18:28:47.324Z,-17.35
2022-12-16T18:31:32.869Z,-17.42
2022-12-16T18:34:18.579Z,-17.38
2022-12-16T18:37:05.112Z,-17.45
2022-12-16T18:39:50.604Z,-17.40
2022-12-16T18:42:37.434Z,-17.28
2022-12-16T18:45:23.106Z,-17.32
2022-12-16T18:48:08.567Z,-17.36
2022-12-16T18:50:53.703Z,-17.39
2022-12-16T18:53:41.891Z,-17.32
2022-12-16T18:56:29.273Z,-17.39
2022-12-16T18:59:17.409Z,-17.57
2022-12-16T19:02:03.061Z,-17.65
2022-12-16T19:04:48.384Z,-17.66
2022-12-16T19:07:34.238Z,-17.65
2022-12-16T19:10:20.733Z,-17.63
2022-12-16T19:13:06.187Z,-17.63
2022-12-16T19:15:53.028Z,-17.60
2022-12-16T19:18:38.413Z,-17.54
2022-12-16T19:21:24.787Z,-17.49
2022-12-16T19:24:10.111Z,-17.39
2022-12-16T19:26:52.005Z,-17.33
2022-12-16T19:29:37.455Z,-17.31
2022-12-16T19:32:24.423Z,-17.45
2022-12-16T19:35:18.230Z,-17.50
2022-12-16T19:38:03.532Z,-17.67
2022-12-16T19:40:48.984Z,-17.61
2022-12-16T19:43:35.145Z,-17.67
2022-12-16T19:46:20.629Z,-17.76
2022-12-16T19:49:07.615Z,-17.71
2022-12-16T19:51:53.957Z,-17.73
2022-12-16T19:54:42.243Z,-17.66
2022-12-16T19:57:28.406Z,-17.61
2022-12-16T20:00:13.654Z,-17.62
2022-12-16T20:02:59.042Z,-17.58
2022-12-16T20:05:46.032Z,-17.66
2022-12-16T20:08:32.912Z,-17.62
2022-12-16T20:11:25.490Z,-17.68
2022-12-16T20:14:11.696Z,-17.72
2022-12-16T20:16:57.767Z,-17.83
2022-12-16T20:19:45.510Z,-17.84
2022-12-16T20:22:47.014Z,-17.81
2022-12-16T20:25:32.598Z,-17.69
2022-12-16T20:31:23.776Z,-17.65
2022-12-16T20:34:11.722Z,-17.59
2022-12-16T20:36:57.186Z,-17.54
2022-12-16T20:39:47.980Z,-17.53
2022-12-16T20:42:36.585Z,-17.43
2022-12-16T20:45:22.117Z,-17.46
2022-12-16T20:48:07.472Z,-17.47
2022-12-16T20:50:55.939Z,-17.50
2022-12-16T20:53:41.831Z,-17.44
2022-12-16T20:56:29.362Z,-17.39
2022-12-16T20:59:14.858Z,-17.50
2022-12-16T21:02:22.327Z,-17.50
2022-12-16T21:05:05.334Z,-17.37
2022-12-16T21:07:50.733Z,-17.33
2022-12-16T21:10:37.529Z,-17.26
2022-12-16T21:13:29.353Z,-17.03
2022-12-16T21:16:16.260Z,-16.64
2022-12-16T21:19:01.699Z,-16.26
2022-12-16T21:21:47.752Z,-15.93
2022-12-16T21:24:33.122Z,-15.29
2022-12-16T21:27:18.548Z,-14.62
2022-12-16T21:30:05.096Z,-14.22
2022-12-16T21:32:50.621Z,-13.93
2022-12-16T21:35:39.414Z,-13.85
2022-12-16T21:38:27.233Z,-13.72
2022-12-16T21:41:21.998Z,-13.55
2022-12-16T21:44:09.429Z,-13.34
2022-12-16T21:47:07.805Z,-13.11
2022-12-16T21:49:52.970Z,-13.09
2022-12-16T21:52:41.511Z,-12.93
2022-12-16T21:55:26.807Z,-12.81
2022-12-16T21:58:12.177Z,-12.68
2022-12-16T22:01:00.504Z,-12.58
2022-12-16T22:03:52.138Z,-12.40
2022-12-16T22:06:37.314Z,-12.34
2022-12-16T22:09:23.100Z,-12.33
2022-12-16T22:12:09.605Z,-12.20
2022-12-16T22:14:54.812Z,-12.11
2022-12-16T22:17:43.976Z,-12.12
2022-12-16T22:20:31.165Z,-11.97
2022-12-16T22:23:16.374Z,-11.88
2022-12-16T22:26:01.668Z,-11.81
2022-12-16T22:28:47.072Z,-11.76
2022-12-16T22:31:32.409Z,-11.70
2022-12-16T22:34:27.507Z,-11.63
2022-12-16T22:37:14.585Z,-11.54
2022-12-16T22:40:00.022Z,-11.51
2022-12-16T22:42:45.382Z,-11.45
2022-12-16T22:45:30.851Z,-11.38
2022-12-16T22:48:16.036Z,-11.27
2022-12-16T22:51:01.430Z,-11.22
2022-12-16T22:53:48.123Z,-11.21
2022-12-16T22:56:33.622Z,-11.12
2022-12-16T22:59:18.978Z,-11.06
2022-12-16T23:02:41.915Z,-11.04
2022-12-16T23:05:28.138Z,-10.86
2022-12-16T23:08:13.665Z,-10.82
2022-12-16T23:11:00.757Z,-10.74
2022-12-16T23:13:47.032Z,-10.66
2022-12-16T23:16:32.208Z,-10.58
2022-12-16T23:19:19.473Z,-10.50
2022-12-16T23:22:08.489Z,-10.44
2022-12-16T23:24:54.886Z,-10.38
2022-12-16T23:27:44.180Z,-10.26
2022-12-16T23:30:30.002Z,-10.19
2022-12-16T23:33:16.545Z,-10.13
2022-12-16T23:35:58.418Z,-10.09
2022-12-16T23:38:44.323Z,-10.06
2022-12-16T23:41:29.739Z,-10.06
2022-12-16T23:44:16.422Z,-10.07
2022-12-16T23:47:01.679Z,-10.36
2022-12-16T23:49:49.262Z,-10.41
2022-12-16T23:52:34.621Z,-10.53
2022-12-16T23:55:19.965Z,-10.64
2022-12-16T23:58:05.123Z,-10.65
